sensor_id;sensor_type;location;lat;lon;timestamp;temperature;humidity
5792;DHT22;2922;53.482;10.006;2023-02-28T00:00:33;3.50;99.90
5792;DHT22;2922;53.482;10.006;2023-02-28T00:02:59;3.60;99.90
5792;DHT22;2922;53.482;10.006;2023-02-28T00:05:26;3.50;99.90
5792;DHT22;2922;53.482;10.006;2023-02-28T00:07:52;3.50;99.90
5792;DHT22;2922;53.482;10.006;2023-02-28T00:10:20;3.50;99.90
5792;DHT22;2922;53.482;10.006;2023-02-28T00:12:47;3.50;99.90
5792;DHT22;2922;53.482;10.006;2023-02-28T00:15:13;3.50;99.90
5792;DHT22;2922;53.482;10.006;2023-02-28T00:17:38;3.50;99.90
5792;DHT22;2922;53.482;10.006;2023-02-28T00:20:05;3.50;99.90
5792;DHT22;2922;53.482;10.006;2023-02-28T00:22:34;3.50;99.90
5792;DHT22;2922;53.482;10.006;2023-02-28T00:24:59;3.50;99.90
5792;DHT22;2922;53.482;10.006;2023-02-28T00:27:25;3.50;99.90
5792;DHT22;2922;53.482;10.006;2023-02-28T00:29:51;3.40;99.90
5792;DHT22;2922;53.482;10.006;2023-02-28T00:32:16;3.40;99.90
5792;DHT22;2922;53.482;10.006;2023-02-28T00:34:44;3.40;99.90
5792;DHT22;2922;53.482;10.006;2023-02-28T00:37:11;3.30;99.90
5792;DHT22;2922;53.482;10.006;2023-02-28T00:39:39;3.30;99.90
5792;DHT22;2922;53.482;10.006;2023-02-28T00:42:06;3.30;99.90
5792;DHT22;2922;53.482;10.006;2023-02-28T00:44:32;3.20;99.90
5792;DHT22;2922;53.482;10.006;2023-02-28T00:46:59;3.20;99.90
5792;DHT22;2922;53.482;10.006;2023-02-28T00:49:26;3.10;99.90
5792;DHT22;2922;53.482;10.006;2023-02-28T00:51:52;3.10;99.90
5792;DHT22;2922;53.482;10.006;2023-02-28T00:54:18;3.00;99.90
5792;DHT22;2922;53.482;10.006;2023-02-28T00:56:44;3.00;99.90
5792;DHT22;2922;53.482;10.006;2023-02-28T00:59:12;2.90;99.90
5792;DHT22;2922;53.482;10.006;2023-02-28T01:01:37;2.90;99.90
5792;DHT22;2922;53.482;10.006;2023-02-28T01:04:03;2.80;99.90
5792;DHT22;2922;53.482;10.006;2023-02-28T01:06:30;2.80;99.90
5792;DHT22;2922;53.482;10.006;2023-02-28T01:08:55;2.70;99.90
5792;DHT22;2922;53.482;10.006;2023-02-28T01:11:21;2.70;99.90
5792;DHT22;2922;53.482;10.006;2023-02-28T01:13:47;2.70;99.90
5792;DHT22;2922;53.482;10.006;2023-02-28T01:16:13;2.60;99.90
5792;DHT22;2922;53.482;10.006;2023-02-28T01:18:39;2.60;99.90
5792;DHT22;2922;53.482;10.006;2023-02-28T01:21:10;2.60;99.90
5792;DHT22;2922;53.482;10.006;2023-02-28T01:23:36;2.60;99.90
5792;DHT22;2922;53.482;10.006;2023-02-28T01:28:31;2.50;99.90
5792;DHT22;2922;53.482;10.006;2023-02-28T01:30:57;2.50;99.90
5792;DHT22;2922;53.482;10.006;2023-02-28T01:33:22;2.50;99.90
5792;DHT22;2922;53.482;10.006;2023-02-28T01:35:48;2.50;99.90
5792;DHT22;2922;53.482;10.006;2023-02-28T01:38:14;2.50;99.90
5792;DHT22;2922;53.482;10.006;2023-02-28T01:40:39;2.50;99.90
5792;DHT22;2922;53.482;10.006;2023-02-28T01:43:23;2.50;99.90
5792;DHT22;2922;53.482;10.006;2023-02-28T01:45:49;2.50;99.90
5792;DHT22;2922;53.482;10.006;2023-02-28T01:48:15;2.50;99.90
5792;DHT22;2922;53.482;10.006;2023-02-28T01:50:43;2.40;99.90
5792;DHT22;2922;53.482;10.006;2023-02-28T01:53:13;2.40;99.90
5792;DHT22;2922;53.482;10.006;2023-02-28T01:55:41;2.40;99.90
5792;DHT22;2922;53.482;10.006;2023-02-28T01:58:08;2.30;99.90
5792;DHT22;2922;53.482;10.006;2023-02-28T02:00:34;2.30;99.90
5792;DHT22;2922;53.482;10.006;2023-02-28T02:03:06;2.20;99.90
5792;DHT22;2922;53.482;10.006;2023-02-28T02:05:36;2.20;99.90
5792;DHT22;2922;53.482;10.006;2023-02-28T02:08:05;2.10;99.90
5792;DHT22;2922;53.482;10.006;2023-02-28T02:10:42;2.10;99.90
5792;DHT22;2922;53.482;10.006;2023-02-28T02:18:43;1.90;99.90
5792;DHT22;2922;53.482;10.006;2023-02-28T02:24:57;1.70;99.90
5792;DHT22;2922;53.482;10.006;2023-02-28T02:27:51;1.60;99.90
5792;DHT22;2922;53.482;10.006;2023-02-28T02:36:11;1.40;99.90
5792;DHT22;2922;53.482;10.006;2023-02-28T02:39:07;1.30;99.90
5792;DHT22;2922;53.482;10.006;2023-02-28T02:46:37;1.10;99.90
5792;DHT22;2922;53.482;10.006;2023-02-28T02:49:09;1.10;99.90
5792;DHT22;2922;53.482;10.006;2023-02-28T02:51:36;1.00;99.90
5792;DHT22;2922;53.482;10.006;2023-02-28T02:54:26;1.00;99.90
5792;DHT22;2922;53.482;10.006;2023-02-28T02:56:57;1.00;99.90
5792;DHT22;2922;53.482;10.006;2023-02-28T02:59:24;1.00;99.90
5792;DHT22;2922;53.482;10.006;2023-02-28T03:01:57;1.00;99.90
5792;DHT22;2922;53.482;10.006;2023-02-28T03:04:30;0.90;99.90
5792;DHT22;2922;53.482;10.006;2023-02-28T03:06:55;0.80;99.90
5792;DHT22;2922;53.482;10.006;2023-02-28T03:09:25;0.80;99.90
5792;DHT22;2922;53.482;10.006;2023-02-28T03:11:53;0.70;99.90
5792;DHT22;2922;53.482;10.006;2023-02-28T03:19:39;0.60;99.90
5792;DHT22;2922;53.482;10.006;2023-02-28T03:22:32;0.50;99.90
5792;DHT22;2922;53.482;10.006;2023-02-28T03:25:08;0.50;99.90
5792;DHT22;2922;53.482;10.006;2023-02-28T03:27:55;0.50;99.90
5792;DHT22;2922;53.482;10.006;2023-02-28T03:33:17;0.40;99.90
5792;DHT22;2922;53.482;10.006;2023-02-28T03:35:52;0.30;99.90
5792;DHT22;2922;53.482;10.006;2023-02-28T03:41:18;0.20;99.90
5792;DHT22;2922;53.482;10.006;2023-02-28T03:43:50;0.20;99.90
5792;DHT22;2922;53.482;10.006;2023-02-28T03:46:21;0.20;99.90
5792;DHT22;2922;53.482;10.006;2023-02-28T03:49:16;0.10;99.90
5792;DHT22;2922;53.482;10.006;2023-02-28T03:51:42;0.10;99.90
5792;DHT22;2922;53.482;10.006;2023-02-28T03:54:18;0.00;99.90
5792;DHT22;2922;53.482;10.006;2023-02-28T03:56:53;0.00;99.90
5792;DHT22;2922;53.482;10.006;2023-02-28T03:59:28;0.00;99.90
5792;DHT22;2922;53.482;10.006;2023-02-28T04:01:54;0.00;99.90
5792;DHT22;2922;53.482;10.006;2023-02-28T04:04:21;-0.10;99.90
5792;DHT22;2922;53.482;10.006;2023-02-28T04:06:50;-0.10;99.90
5792;DHT22;2922;53.482;10.006;2023-02-28T04:09:16;-0.10;99.90
5792;DHT22;2922;53.482;10.006;2023-02-28T04:11:50;-0.10;99.90
5792;DHT22;2922;53.482;10.006;2023-02-28T04:14:21;-0.10;99.90
5792;DHT22;2922;53.482;10.006;2023-02-28T04:16:46;-0.20;99.90
5792;DHT22;2922;53.482;10.006;2023-02-28T04:19:13;-0.20;99.90
5792;DHT22;2922;53.482;10.006;2023-02-28T04:21:44;-0.30;99.90
5792;DHT22;2922;53.482;10.006;2023-02-28T04:24:22;-0.30;99.90
5792;DHT22;2922;53.482;10.006;2023-02-28T04:26:50;-0.30;99.90
5792;DHT22;2922;53.482;10.006;2023-02-28T04:29:23;-0.30;99.90
5792;DHT22;2922;53.482;10.006;2023-02-28T04:31:49;-0.30;99.90
5792;DHT22;2922;53.482;10.006;2023-02-28T04:34:14;-0.40;99.90
5792;DHT22;2922;53.482;10.006;2023-02-28T04:36:40;-0.40;99.90
5792;DHT22;2922;53.482;10.006;2023-02-28T04:39:06;-0.40;99.90
5792;DHT22;2922;53.482;10.006;2023-02-28T04:41:32;-0.40;99.90
5792;DHT22;2922;53.482;10.006;2023-02-28T04:43:57;-0.40;99.90
5792;DHT22;2922;53.482;10.006;2023-02-28T04:46:23;-0.50;99.90
5792;DHT22;2922;53.482;10.006;2023-02-28T04:48:49;-0.50;99.90
5792;DHT22;2922;53.482;10.006;2023-02-28T04:51:16;-0.60;99.90
5792;DHT22;2922;53.482;10.006;2023-02-28T04:53:43;-0.50;99.90
5792;DHT22;2922;53.482;10.006;2023-02-28T04:56:12;-0.60;99.90
5792;DHT22;2922;53.482;10.006;2023-02-28T04:58:38;-0.60;99.90
5792;DHT22;2922;53.482;10.006;2023-02-28T05:01:07;-0.60;99.90
5792;DHT22;2922;53.482;10.006;2023-02-28T05:03:40;-0.60;99.90
5792;DHT22;2922;53.482;10.006;2023-02-28T05:06:10;-0.70;99.90
5792;DHT22;2922;53.482;10.006;2023-02-28T05:08:36;-0.70;99.90
5792;DHT22;2922;53.482;10.006;2023-02-28T05:11:02;-0.70;99.90
5792;DHT22;2922;53.482;10.006;2023-02-28T05:13:28;-0.80;99.90
5792;DHT22;2922;53.482;10.006;2023-02-28T05:15:54;-0.80;99.90
5792;DHT22;2922;53.482;10.006;2023-02-28T05:18:20;-0.80;99.90
5792;DHT22;2922;53.482;10.006;2023-02-28T05:20:45;-0.90;99.90
5792;DHT22;2922;53.482;10.006;2023-02-28T05:23:12;-0.90;99.90
5792;DHT22;2922;53.482;10.006;2023-02-28T05:25:38;-0.90;99.90
5792;DHT22;2922;53.482;10.006;2023-02-28T05:28:04;-0.90;99.90
5792;DHT22;2922;53.482;10.006;2023-02-28T05:30:30;-0.90;99.90
5792;DHT22;2922;53.482;10.006;2023-02-28T05:32:57;-0.90;99.90
5792;DHT22;2922;53.482;10.006;2023-02-28T05:35:23;-1.00;99.90
5792;DHT22;2922;53.482;10.006;2023-02-28T05:37:49;-1.00;99.90
5792;DHT22;2922;53.482;10.006;2023-02-28T05:40:15;-1.00;99.90
5792;DHT22;2922;53.482;10.006;2023-02-28T05:42:41;-1.00;99.90
5792;DHT22;2922;53.482;10.006;2023-02-28T05:45:07;-1.00;99.90
5792;DHT22;2922;53.482;10.006;2023-02-28T05:47:34;-1.10;99.90
5792;DHT22;2922;53.482;10.006;2023-02-28T05:50:00;-1.10;99.90
5792;DHT22;2922;53.482;10.006;2023-02-28T05:52:27;-1.10;99.90
5792;DHT22;2922;53.482;10.006;2023-02-28T05:54:53;-1.10;99.90
5792;DHT22;2922;53.482;10.006;2023-02-28T05:57:18;-1.20;99.90
5792;DHT22;2922;53.482;10.006;2023-02-28T05:59:44;-1.20;99.90
5792;DHT22;2922;53.482;10.006;2023-02-28T06:02:14;-1.20;99.90
5792;DHT22;2922;53.482;10.006;2023-02-28T06:04:40;-1.20;99.90
5792;DHT22;2922;53.482;10.006;2023-02-28T06:07:07;-1.20;99.90
5792;DHT22;2922;53.482;10.006;2023-02-28T06:09:33;-1.20;99.90
5792;DHT22;2922;53.482;10.006;2023-02-28T06:12:00;-1.20;99.90
5792;DHT22;2922;53.482;10.006;2023-02-28T06:14:28;-1.20;99.90
5792;DHT22;2922;53.482;10.006;2023-02-28T06:16:53;-1.20;99.90
5792;DHT22;2922;53.482;10.006;2023-02-28T06:19:19;-1.20;99.90
5792;DHT22;2922;53.482;10.006;2023-02-28T06:21:45;-1.20;99.90
5792;DHT22;2922;53.482;10.006;2023-02-28T06:24:11;-1.20;99.90
5792;DHT22;2922;53.482;10.006;2023-02-28T06:26:36;-1.20;99.90
5792;DHT22;2922;53.482;10.006;2023-02-28T06:29:02;-1.30;99.90
5792;DHT22;2922;53.482;10.006;2023-02-28T06:31:28;-1.30;99.90
5792;DHT22;2922;53.482;10.006;2023-02-28T06:33:54;-1.20;99.90
5792;DHT22;2922;53.482;10.006;2023-02-28T06:36:21;-1.10;99.90
5792;DHT22;2922;53.482;10.006;2023-02-28T06:38:46;-1.10;99.90
5792;DHT22;2922;53.482;10.006;2023-02-28T06:41:17;-1.10;99.90
5792;DHT22;2922;53.482;10.006;2023-02-28T06:43:43;-1.10;99.90
5792;DHT22;2922;53.482;10.006;2023-02-28T06:46:12;-1.10;99.90
5792;DHT22;2922;53.482;10.006;2023-02-28T06:48:39;-1.10;99.90
5792;DHT22;2922;53.482;10.006;2023-02-28T06:51:23;-1.10;99.90
5792;DHT22;2922;53.482;10.006;2023-02-28T06:53:50;-1.00;99.90
5792;DHT22;2922;53.482;10.006;2023-02-28T06:56:17;-1.10;99.90
5792;DHT22;2922;53.482;10.006;2023-02-28T06:58:46;-1.00;99.90
5792;DHT22;2922;53.482;10.006;2023-02-28T07:01:13;-1.00;99.90
5792;DHT22;2922;53.482;10.006;2023-02-28T07:03:39;-1.00;99.90
5792;DHT22;2922;53.482;10.006;2023-02-28T07:06:05;-1.00;99.90
5792;DHT22;2922;53.482;10.006;2023-02-28T07:08:31;-1.00;99.90
5792;DHT22;2922;53.482;10.006;2023-02-28T07:10:57;-0.90;99.90
5792;DHT22;2922;53.482;10.006;2023-02-28T07:13:23;-0.90;99.90
5792;DHT22;2922;53.482;10.006;2023-02-28T07:16:00;-0.80;99.90
5792;DHT22;2922;53.482;10.006;2023-02-28T07:18:26;-0.70;99.90
5792;DHT22;2922;53.482;10.006;2023-02-28T07:20:52;-0.70;99.90
5792;DHT22;2922;53.482;10.006;2023-02-28T07:23:18;-0.50;99.90
5792;DHT22;2922;53.482;10.006;2023-02-28T07:25:44;-0.50;99.90
5792;DHT22;2922;53.482;10.006;2023-02-28T07:28:11;-0.30;99.90
5792;DHT22;2922;53.482;10.006;2023-02-28T07:30:36;-0.20;99.90
5792;DHT22;2922;53.482;10.006;2023-02-28T07:33:02;-0.10;99.90
5792;DHT22;2922;53.482;10.006;2023-02-28T07:35:29;0.00;99.90
5792;DHT22;2922;53.482;10.006;2023-02-28T07:37:54;0.20;99.90
5792;DHT22;2922;53.482;10.006;2023-02-28T07:40:20;0.30;99.90
5792;DHT22;2922;53.482;10.006;2023-02-28T07:42:45;0.50;99.90
5792;DHT22;2922;53.482;10.006;2023-02-28T07:45:11;0.80;99.90
5792;DHT22;2922;53.482;10.006;2023-02-28T07:47:41;0.90;99.90
5792;DHT22;2922;53.482;10.006;2023-02-28T07:50:09;1.10;99.90
5792;DHT22;2922;53.482;10.006;2023-02-28T07:52:39;1.30;99.90
5792;DHT22;2922;53.482;10.006;2023-02-28T07:55:06;1.40;99.90
5792;DHT22;2922;53.482;10.006;2023-02-28T07:57:32;1.60;99.90
5792;DHT22;2922;53.482;10.006;2023-02-28T07:59:57;1.70;99.90
5792;DHT22;2922;53.482;10.006;2023-02-28T08:02:23;1.80;99.90
5792;DHT22;2922;53.482;10.006;2023-02-28T08:04:49;1.80;99.90
5792;DHT22;2922;53.482;10.006;2023-02-28T08:07:15;1.80;99.90
5792;DHT22;2922;53.482;10.006;2023-02-28T08:09:42;1.80;99.90
5792;DHT22;2922;53.482;10.006;2023-02-28T08:12:10;2.00;99.90
5792;DHT22;2922;53.482;10.006;2023-02-28T08:14:36;2.20;99.90
5792;DHT22;2922;53.482;10.006;2023-02-28T08:17:02;2.30;99.90
5792;DHT22;2922;53.482;10.006;2023-02-28T08:19:28;2.30;99.90
5792;DHT22;2922;53.482;10.006;2023-02-28T08:21:54;2.40;99.90
5792;DHT22;2922;53.482;10.006;2023-02-28T08:24:20;2.50;99.90
5792;DHT22;2922;53.482;10.006;2023-02-28T08:26:46;2.60;99.90
5792;DHT22;2922;53.482;10.006;2023-02-28T08:29:11;2.70;99.90
5792;DHT22;2922;53.482;10.006;2023-02-28T08:31:37;2.80;99.90
5792;DHT22;2922;53.482;10.006;2023-02-28T08:34:07;2.90;99.90
5792;DHT22;2922;53.482;10.006;2023-02-28T08:36:33;3.00;99.90
5792;DHT22;2922;53.482;10.006;2023-02-28T08:38:59;3.20;99.90
5792;DHT22;2922;53.482;10.006;2023-02-28T08:41:25;3.30;99.90
5792;DHT22;2922;53.482;10.006;2023-02-28T08:43:51;3.50;99.90
5792;DHT22;2922;53.482;10.006;2023-02-28T08:46:17;3.60;99.90
5792;DHT22;2922;53.482;10.006;2023-02-28T08:48:43;3.70;99.90
5792;DHT22;2922;53.482;10.006;2023-02-28T08:51:15;3.80;99.90
5792;DHT22;2922;53.482;10.006;2023-02-28T08:53:44;4.00;99.90
5792;DHT22;2922;53.482;10.006;2023-02-28T08:56:12;4.10;99.90
5792;DHT22;2922;53.482;10.006;2023-02-28T08:58:38;4.20;99.90
5792;DHT22;2922;53.482;10.006;2023-02-28T09:01:11;4.30;99.90
5792;DHT22;2922;53.482;10.006;2023-02-28T09:03:37;4.40;99.90
5792;DHT22;2922;53.482;10.006;2023-02-28T09:06:03;4.50;99.90
5792;DHT22;2922;53.482;10.006;2023-02-28T09:08:30;4.60;99.90
5792;DHT22;2922;53.482;10.006;2023-02-28T09:10:57;4.60;99.90
5792;DHT22;2922;53.482;10.006;2023-02-28T09:13:24;4.70;99.90
5792;DHT22;2922;53.482;10.006;2023-02-28T09:15:50;4.80;99.90
5792;DHT22;2922;53.482;10.006;2023-02-28T09:18:16;5.00;99.90
5792;DHT22;2922;53.482;10.006;2023-02-28T09:20:42;5.30;99.90
5792;DHT22;2922;53.482;10.006;2023-02-28T09:23:08;5.40;99.90
5792;DHT22;2922;53.482;10.006;2023-02-28T09:25:35;5.60;99.90
5792;DHT22;2922;53.482;10.006;2023-02-28T09:28:01;5.70;99.90
5792;DHT22;2922;53.482;10.006;2023-02-28T09:30:27;6.00;99.90
5792;DHT22;2922;53.482;10.006;2023-02-28T09:32:53;6.20;99.90
5792;DHT22;2922;53.482;10.006;2023-02-28T09:35:23;6.30;99.90
5792;DHT22;2922;53.482;10.006;2023-02-28T09:37:50;6.50;99.90
5792;DHT22;2922;53.482;10.006;2023-02-28T09:40:20;6.70;99.90
5792;DHT22;2922;53.482;10.006;2023-02-28T09:42:48;6.80;99.90
5792;DHT22;2922;53.482;10.006;2023-02-28T09:47:59;7.20;99.90
5792;DHT22;2922;53.482;10.006;2023-02-28T09:53:04;7.20;99.90
5792;DHT22;2922;53.482;10.006;2023-02-28T09:55:51;7.40;99.90
5792;DHT22;2922;53.482;10.006;2023-02-28T09:58:28;7.60;99.90
5792;DHT22;2922;53.482;10.006;2023-02-28T10:01:03;7.80;99.90
5792;DHT22;2922;53.482;10.006;2023-02-28T10:03:40;8.00;99.90
5792;DHT22;2922;53.482;10.006;2023-02-28T10:06:14;8.30;99.90
5792;DHT22;2922;53.482;10.006;2023-02-28T10:09:03;8.50;99.90
5792;DHT22;2922;53.482;10.006;2023-02-28T10:11:33;8.70;99.90
5792;DHT22;2922;53.482;10.006;2023-02-28T10:14:02;8.50;97.70
5792;DHT22;2922;53.482;10.006;2023-02-28T10:19:08;8.60;94.20
5792;DHT22;2922;53.482;10.006;2023-02-28T10:21:39;8.70;96.30
5792;DHT22;2922;53.482;10.006;2023-02-28T10:24:41;8.90;97.20
5792;DHT22;2922;53.482;10.006;2023-02-28T10:27:23;9.10;94.40
5792;DHT22;2922;53.482;10.006;2023-02-28T10:29:56;9.30;93.10
5792;DHT22;2922;53.482;10.006;2023-02-28T10:32:33;9.50;93.00
5792;DHT22;2922;53.482;10.006;2023-02-28T10:35:15;9.40;90.70
5792;DHT22;2922;53.482;10.006;2023-02-28T10:37:47;9.50;91.50
5792;DHT22;2922;53.482;10.006;2023-02-28T10:45:38;9.50;87.00
5792;DHT22;2922;53.482;10.006;2023-02-28T10:50:37;8.90;83.50
5792;DHT22;2922;53.482;10.006;2023-02-28T10:55:36;9.10;91.20
5792;DHT22;2922;53.482;10.006;2023-02-28T10:58:02;9.10;87.60
5792;DHT22;2922;53.482;10.006;2023-02-28T11:00:33;9.30;87.40
5792;DHT22;2922;53.482;10.006;2023-02-28T11:02:59;9.60;86.60
5792;DHT22;2922;53.482;10.006;2023-02-28T11:05:34;9.80;87.60
5792;DHT22;2922;53.482;10.006;2023-02-28T11:08:14;9.90;81.90
5792;DHT22;2922;53.482;10.006;2023-02-28T11:10:48;10.10;78.70
5792;DHT22;2922;53.482;10.006;2023-02-28T11:13:21;10.40;86.80
5792;DHT22;2922;53.482;10.006;2023-02-28T11:15:58;10.60;76.90
5792;DHT22;2922;53.482;10.006;2023-02-28T11:21:04;10.70;78.10
5792;DHT22;2922;53.482;10.006;2023-02-28T11:23:32;10.90;73.90
5792;DHT22;2922;53.482;10.006;2023-02-28T11:26:01;11.00;71.30
5792;DHT22;2922;53.482;10.006;2023-02-28T11:28:35;11.10;69.50
5792;DHT22;2922;53.482;10.006;2023-02-28T11:36:18;11.40;64.10
5792;DHT22;2922;53.482;10.006;2023-02-28T11:38:44;11.30;62.60
5792;DHT22;2922;53.482;10.006;2023-02-28T11:41:17;11.40;66.30
5792;DHT22;2922;53.482;10.006;2023-02-28T11:44:11;11.40;66.10
5792;DHT22;2922;53.482;10.006;2023-02-28T11:46:53;11.40;62.80
5792;DHT22;2922;53.482;10.006;2023-02-28T11:52:52;11.70;58.60
5792;DHT22;2922;53.482;10.006;2023-02-28T11:58:22;11.70;61.40
5792;DHT22;2922;53.482;10.006;2023-02-28T12:06:31;11.70;61.40
5792;DHT22;2922;53.482;10.006;2023-02-28T12:09:20;11.80;60.30
5792;DHT22;2922;53.482;10.006;2023-02-28T12:15:29;12.00;60.30
5792;DHT22;2922;53.482;10.006;2023-02-28T12:26:14;11.80;51.30
5792;DHT22;2922;53.482;10.006;2023-02-28T12:28:46;11.80;59.00
5792;DHT22;2922;53.482;10.006;2023-02-28T12:31:20;11.90;55.10
5792;DHT22;2922;53.482;10.006;2023-02-28T12:34:09;11.90;54.30
5792;DHT22;2922;53.482;10.006;2023-02-28T12:36:36;12.00;53.80
5792;DHT22;2922;53.482;10.006;2023-02-28T12:39:24;12.00;52.50
5792;DHT22;2922;53.482;10.006;2023-02-28T12:41:59;12.10;53.20
5792;DHT22;2922;53.482;10.006;2023-02-28T12:44:30;12.20;51.90
5792;DHT22;2922;53.482;10.006;2023-02-28T12:47:00;12.00;49.70
5792;DHT22;2922;53.482;10.006;2023-02-28T12:49:33;12.10;50.60
5792;DHT22;2922;53.482;10.006;2023-02-28T12:52:00;12.20;50.80
5792;DHT22;2922;53.482;10.006;2023-02-28T12:54:31;12.00;48.80
5792;DHT22;2922;53.482;10.006;2023-02-28T13:02:28;12.30;49.40
5792;DHT22;2922;53.482;10.006;2023-02-28T13:10:47;12.40;49.00
5792;DHT22;2922;53.482;10.006;2023-02-28T13:13:29;12.50;47.10
5792;DHT22;2922;53.482;10.006;2023-02-28T13:16:07;12.50;49.30
5792;DHT22;2922;53.482;10.006;2023-02-28T13:18:40;12.60;46.90
5792;DHT22;2922;53.482;10.006;2023-02-28T13:21:09;12.50;45.80
5792;DHT22;2922;53.482;10.006;2023-02-28T13:26:22;12.50;44.50
5792;DHT22;2922;53.482;10.006;2023-02-28T13:31:14;12.70;46.90
5792;DHT22;2922;53.482;10.006;2023-02-28T13:44:13;12.60;48.00
5792;DHT22;2922;53.482;10.006;2023-02-28T14:00:23;12.90;47.90
5792;DHT22;2922;53.482;10.006;2023-02-28T14:06:16;12.90;49.20
5792;DHT22;2922;53.482;10.006;2023-02-28T14:09:06;12.90;47.30
5792;DHT22;2922;53.482;10.006;2023-02-28T14:11:42;13.00;48.10
5792;DHT22;2922;53.482;10.006;2023-02-28T14:16:55;12.80;45.80
5792;DHT22;2922;53.482;10.006;2023-02-28T14:19:28;12.80;47.10
5792;DHT22;2922;53.482;10.006;2023-02-28T14:27:20;12.90;47.20
5792;DHT22;2922;53.482;10.006;2023-02-28T14:32:32;13.00;47.80
5792;DHT22;2922;53.482;10.006;2023-02-28T14:37:39;12.80;47.20
5792;DHT22;2922;53.482;10.006;2023-02-28T14:40:15;12.70;47.70
5792;DHT22;2922;53.482;10.006;2023-02-28T14:42:56;12.70;47.40
5792;DHT22;2922;53.482;10.006;2023-02-28T14:45:22;12.70;47.80
5792;DHT22;2922;53.482;10.006;2023-02-28T14:47:51;12.50;46.50
5792;DHT22;2922;53.482;10.006;2023-02-28T14:50:23;12.40;47.70
5792;DHT22;2922;53.482;10.006;2023-02-28T14:52:53;12.20;47.80
5792;DHT22;2922;53.482;10.006;2023-02-28T14:55:33;11.80;47.80
5792;DHT22;2922;53.482;10.006;2023-02-28T14:58:05;11.70;49.20
5792;DHT22;2922;53.482;10.006;2023-02-28T15:00:47;11.60;46.50
5792;DHT22;2922;53.482;10.006;2023-02-28T15:03:32;11.60;48.30
5792;DHT22;2922;53.482;10.006;2023-02-28T15:06:00;11.40;45.80
5792;DHT22;2922;53.482;10.006;2023-02-28T15:08:26;11.30;49.10
5792;DHT22;2922;53.482;10.006;2023-02-28T15:11:03;11.20;48.70
5792;DHT22;2922;53.482;10.006;2023-02-28T15:13:47;11.00;48.40
5792;DHT22;2922;53.482;10.006;2023-02-28T15:16:20;10.80;50.50
5792;DHT22;2922;53.482;10.006;2023-02-28T15:18:54;10.60;47.60
5792;DHT22;2922;53.482;10.006;2023-02-28T15:21:46;10.50;48.30
5792;DHT22;2922;53.482;10.006;2023-02-28T15:24:24;10.50;47.70
5792;DHT22;2922;53.482;10.006;2023-02-28T15:26:56;10.40;50.20
5792;DHT22;2922;53.482;10.006;2023-02-28T15:29:25;10.40;50.70
5792;DHT22;2922;53.482;10.006;2023-02-28T15:31:57;10.20;51.70
5792;DHT22;2922;53.482;10.006;2023-02-28T15:34:40;10.00;52.40
5792;DHT22;2922;53.482;10.006;2023-02-28T15:40:09;9.70;51.90
5792;DHT22;2922;53.482;10.006;2023-02-28T15:42:36;9.50;50.90
5792;DHT22;2922;53.482;10.006;2023-02-28T15:45:01;9.40;52.50
5792;DHT22;2922;53.482;10.006;2023-02-28T15:47:28;9.30;52.80
5792;DHT22;2922;53.482;10.006;2023-02-28T15:50:04;9.20;52.10
5792;DHT22;2922;53.482;10.006;2023-02-28T15:52:38;9.20;52.80
5792;DHT22;2922;53.482;10.006;2023-02-28T15:55:22;9.20;53.50
5792;DHT22;2922;53.482;10.006;2023-02-28T15:57:52;9.20;54.30
5792;DHT22;2922;53.482;10.006;2023-02-28T16:00:23;9.10;53.40
5792;DHT22;2922;53.482;10.006;2023-02-28T16:02:49;9.00;54.90
5792;DHT22;2922;53.482;10.006;2023-02-28T16:07:44;8.80;54.00
5792;DHT22;2922;53.482;10.006;2023-02-28T16:10:11;8.70;54.10
5792;DHT22;2922;53.482;10.006;2023-02-28T16:12:39;8.60;54.00
5792;DHT22;2922;53.482;10.006;2023-02-28T16:15:18;8.50;54.40
5792;DHT22;2922;53.482;10.006;2023-02-28T16:17:44;8.50;54.40
5792;DHT22;2922;53.482;10.006;2023-02-28T16:20:15;8.40;55.00
5792;DHT22;2922;53.482;10.006;2023-02-28T16:22:41;8.30;55.30
5792;DHT22;2922;53.482;10.006;2023-02-28T16:25:11;8.30;55.40
5792;DHT22;2922;53.482;10.006;2023-02-28T16:27:37;8.20;56.50
5792;DHT22;2922;53.482;10.006;2023-02-28T16:30:05;8.20;57.40
5792;DHT22;2922;53.482;10.006;2023-02-28T16:32:34;8.10;57.80
5792;DHT22;2922;53.482;10.006;2023-02-28T16:35:00;8.00;58.00
5792;DHT22;2922;53.482;10.006;2023-02-28T16:37:27;7.90;58.40
5792;DHT22;2922;53.482;10.006;2023-02-28T16:39:52;7.80;59.20
5792;DHT22;2922;53.482;10.006;2023-02-28T16:42:24;7.70;60.30
5792;DHT22;2922;53.482;10.006;2023-02-28T16:44:50;7.50;60.90
5792;DHT22;2922;53.482;10.006;2023-02-28T16:47:17;7.40;62.20
5792;DHT22;2922;53.482;10.006;2023-02-28T16:49:43;7.30;62.10
5792;DHT22;2922;53.482;10.006;2023-02-28T16:52:11;7.20;63.60
5792;DHT22;2922;53.482;10.006;2023-02-28T16:54:38;7.10;64.20
5792;DHT22;2922;53.482;10.006;2023-02-28T16:57:05;7.10;64.10
5792;DHT22;2922;53.482;10.006;2023-02-28T16:59:32;7.00;64.00
5792;DHT22;2922;53.482;10.006;2023-02-28T17:01:58;6.90;64.80
5792;DHT22;2922;53.482;10.006;2023-02-28T17:04:25;6.80;65.50
5792;DHT22;2922;53.482;10.006;2023-02-28T17:06:51;6.70;66.20
5792;DHT22;2922;53.482;10.006;2023-02-28T17:09:22;6.50;67.50
5792;DHT22;2922;53.482;10.006;2023-02-28T17:11:48;6.40;68.50
5792;DHT22;2922;53.482;10.006;2023-02-28T17:14:14;6.30;70.00
5792;DHT22;2922;53.482;10.006;2023-02-28T17:16:40;6.20;71.40
5792;DHT22;2922;53.482;10.006;2023-02-28T17:19:11;6.10;72.10
5792;DHT22;2922;53.482;10.006;2023-02-28T17:21:37;5.90;72.80
5792;DHT22;2922;53.482;10.006;2023-02-28T17:24:03;5.80;74.10
5792;DHT22;2922;53.482;10.006;2023-02-28T17:26:29;5.80;75.30
5792;DHT22;2922;53.482;10.006;2023-02-28T17:28:56;5.70;75.30
5792;DHT22;2922;53.482;10.006;2023-02-28T17:31:23;5.60;76.50
5792;DHT22;2922;53.482;10.006;2023-02-28T17:33:49;5.50;77.60
5792;DHT22;2922;53.482;10.006;2023-02-28T17:36:16;5.30;78.70
5792;DHT22;2922;53.482;10.006;2023-02-28T17:38:43;5.20;78.80
5792;DHT22;2922;53.482;10.006;2023-02-28T17:41:12;5.20;80.90
5792;DHT22;2922;53.482;10.006;2023-02-28T17:43:37;5.10;82.60
5792;DHT22;2922;53.482;10.006;2023-02-28T17:46:03;5.00;83.10
5792;DHT22;2922;53.482;10.006;2023-02-28T17:48:30;4.90;84.40
5792;DHT22;2922;53.482;10.006;2023-02-28T17:50:56;4.80;84.90
5792;DHT22;2922;53.482;10.006;2023-02-28T17:53:22;4.70;86.40
5792;DHT22;2922;53.482;10.006;2023-02-28T17:55:51;4.60;88.40
5792;DHT22;2922;53.482;10.006;2023-02-28T17:58:17;4.50;90.30
5792;DHT22;2922;53.482;10.006;2023-02-28T18:00:44;4.50;90.70
5792;DHT22;2922;53.482;10.006;2023-02-28T18:03:09;4.50;91.40
5792;DHT22;2922;53.482;10.006;2023-02-28T18:05:36;4.40;91.70
5792;DHT22;2922;53.482;10.006;2023-02-28T18:08:02;4.30;92.20
5792;DHT22;2922;53.482;10.006;2023-02-28T18:10:28;4.30;93.10
5792;DHT22;2922;53.482;10.006;2023-02-28T18:12:53;4.20;93.40
5792;DHT22;2922;53.482;10.006;2023-02-28T18:15:20;4.10;93.20
5792;DHT22;2922;53.482;10.006;2023-02-28T18:17:47;4.00;94.10
5792;DHT22;2922;53.482;10.006;2023-02-28T18:20:14;3.90;94.50
5792;DHT22;2922;53.482;10.006;2023-02-28T18:22:41;3.80;96.00
5792;DHT22;2922;53.482;10.006;2023-02-28T18:25:07;3.60;98.10
5792;DHT22;2922;53.482;10.006;2023-02-28T18:27:34;3.50;99.40
5792;DHT22;2922;53.482;10.006;2023-02-28T18:30:01;3.40;99.90
5792;DHT22;2922;53.482;10.006;2023-02-28T18:32:28;3.30;99.90
5792;DHT22;2922;53.482;10.006;2023-02-28T18:34:54;3.20;99.90